Terminal Aerodrome Forecast
Issued by NWS Twin Cities, MN

Home | Current Version | Previous Version | Text Only | Print | Product List | Glossary Off
Versions: 1 2 3 4 5 6 7 8 9 10 11 12 13 14 15 16 17 18 19 20 21 22 23 24 25 26 27 28 29 30 31

000
FTUS43 KMPX 180242 AAA
TAFMSP
TAF AMD
KMSP 180242Z 1803/1906 28009KT P6SM SKC
     FM180600 23004KT P6SM SCT250
     FM180900 12005KT P6SM BKN100
     FM181400 15013G21KT P6SM SCT025 OVC080 WS020/19055KT
     FM181800 18014G23KT P6SM SCT025 OVC080
     FM182200 23008KT P6SM SCT025 OVC050=

USA.gov is the U.S. government's official web portal to all federal, state and local government web resources and services.